Arcadia — ZCOV7 — position and weather

sailwx.info

Track history (hours):
 
Tides and Currents Weather Stations Pressure Air Temp Water Temp Dewpoint Dewpoint Depression Visibility Wind Speed Wind Dir Waves Ship Positions

Arcadia

Last reported at 2017-Nov-18 09:20 UTC. Time now 2017-Nov-21 15:46 UTC.
Position N 38°22' W 024°39'.

Length 36 m; draft 3 m.

Type: Pleasure craft. MMSI: 319030600.

Date/timePositionNaut miles runAvg speedWind from/ knotsBaromVisibWave heightAir tempDewpointWater temp
2017-Nov-18 09:20N 38°22' W 024°39'310.1
2017-Nov-18 09:00N 38°22' W 024°44'510.1
2017-Nov-18 08:30N 38°23' W 024°50'510.2
2017-Nov-18 08:00N 38°23' W 024°56'510.0
2017-Nov-18 07:30N 38°23' W 025°03'510.0
2017-Nov-18 07:00N 38°24' W 025°09'510.1
2017-Nov-18 06:30N 38°24' W 025°15'510.4
2017-Nov-18 06:00N 38°24' W 025°22'510.3
2017-Nov-18 05:30N 38°24' W 025°29'510.3
2017-Nov-18 05:00N 38°24' W 025°35'510.1
2017-Nov-18 04:30N 38°24' W 025°42'510.5
2017-Nov-18 04:00N 38°25' W 025°48'510.5
2017-Nov-18 03:31N 38°25' W 025°55'510.3
2017-Nov-18 03:00N 38°25' W 026°02'510.3
2017-Nov-18 02:30N 38°25' W 026°08'510.3
2017-Nov-18 02:01N 38°26' W 026°15'510.5
2017-Nov-18 01:31N 38°26' W 026°21'510.7
2017-Nov-18 01:00N 38°27' W 026°28'510.5
2017-Nov-18 00:30N 38°27' W 026°35'510.3
2017-Nov-18 00:00N 38°27' W 026°41'510.7
2017-Nov-17 23:30N 38°27' W 026°48'510.4
2017-Nov-17 23:00N 38°27' W 026°55'510.3
2017-Nov-17 22:30N 38°26' W 027°01'510.2
2017-Nov-17 22:00N 38°27' W 027°08'510.2
2017-Nov-17 21:30N 38°27' W 027°14'510.1
2017-Nov-17 21:00N 38°27' W 027°21'510.4
2017-Nov-17 20:31N 38°27' W 027°27'510.5
2017-Nov-17 20:00N 38°28' W 027°34'510.5
2017-Nov-17 19:30N 38°28' W 027°41'510.3
2017-Nov-17 19:01N 38°28' W 027°47'510.4
2017-Nov-17 18:31N 38°30' W 027°54'611.0
2017-Nov-17 18:00N 38°31' W 028°01'5 9.7
2017-Nov-17 17:30N 38°32' W 028°07'510.8
2017-Nov-17 17:00N 38°34' W 028°13'510.9
2017-Nov-17 16:30N 38°36' W 028°20'510.9
2017-Nov-17 16:00N 38°37' W 028°26'510.8
2017-Nov-17 15:30N 38°39' W 028°33'510.6
2017-Nov-17 15:00N 38°41' W 028°39'510.6
2017-Nov-17 14:30N 38°45' W 028°44'510.5
2017-Nov-17 14:00N 38°48' W 028°50'510.1
2017-Nov-17 13:30N 38°51' W 028°55'510.5
2017-Nov-17 13:00N 38°54' W 029°00'510.6
2017-Nov-17 12:30N 38°57' W 029°06'510.6
2017-Nov-17 12:00N 39°00' W 029°11'510.3
2017-Nov-17 11:31N 39°03' W 029°17'510.3
2017-Nov-17 11:00N 39°06' W 029°23'510.2
2017-Nov-17 10:30N 39°08' W 029°28'510.2
2017-Nov-17 10:00N 39°11' W 029°34'510.1
2017-Nov-17 09:30N 39°13' W 029°40'5 9.9
2017-Nov-17 09:00N 39°16' W 029°45'5 9.9
2017-Nov-17 08:30N 39°19' W 029°50'510.4
2017-Nov-17 08:00N 39°22' W 029°56'510.3
2017-Nov-17 07:30N 39°25' W 030°01'  
2017-Nov-12 04:56N 47°34' W 052°42'0 0.0
2017-Nov-12 03:47N 47°34' W 052°42'0 0.0
2017-Nov-12 03:23N 47°34' W 052°42'0 0.0
2017-Nov-12 02:53N 47°34' W 052°42'0 0.0
2017-Nov-11 20:35N 47°34' W 052°42'0 0.0
2017-Nov-11 18:41N 47°34' W 052°42'0 0.0
2017-Nov-11 09:38N 47°34' W 052°42'0 0.0
2017-Nov-11 09:26N 47°34' W 052°42'0 0.0
2017-Nov-11 08:59N 47°34' W 052°42'0 0.0
2017-Nov-11 08:29N 47°34' W 052°42'0 0.0
2017-Nov-11 07:56N 47°34' W 052°42'0 0.0
2017-Nov-11 07:29N 47°34' W 052°42'0 0.0
2017-Nov-11 06:56N 47°34' W 052°42'0 0.0
2017-Nov-11 06:29N 47°34' W 052°42'0 0.0
2017-Nov-11 05:59N 47°34' W 052°42'0 0.0
2017-Nov-11 05:29N 47°34' W 052°42'0 0.0
2017-Nov-11 04:59N 47°34' W 052°42'0 0.0
2017-Nov-11 04:29N 47°34' W 052°42'0 0.0
2017-Nov-11 03:59N 47°34' W 052°42'0 0.0
2017-Nov-11 03:29N 47°34' W 052°42'0 0.0
2017-Nov-11 02:59N 47°34' W 052°42'0 0.0
2017-Nov-11 02:29N 47°34' W 052°42'0 0.0
2017-Nov-11 01:53N 47°34' W 052°42'0 0.0
2017-Nov-11 01:29N 47°34' W 052°42'0 0.0
2017-Nov-11 00:59N 47°34' W 052°42'0 0.0
2017-Nov-10 21:17N 47°34' W 052°42'0 0.0
2017-Nov-10 18:29N 47°34' W 052°42'0 0.0
2017-Nov-10 17:56N 47°34' W 052°42'0 0.0
2017-Nov-10 15:11N 47°34' W 052°42'0 0.0
2017-Nov-10 14:53N 47°34' W 052°42'0 0.0
2017-Nov-10 12:41N 47°34' W 052°42'0 0.0
2017-Nov-10 12:11N 47°34' W 052°42'0 0.0
2017-Nov-10 04:35N 47°34' W 052°42'0 0.0
2017-Nov-10 04:29N 47°34' W 052°42'0 0.0
2017-Nov-10 03:50N 47°34' W 052°42'0 0.0
2017-Nov-10 03:26N 47°34' W 052°42'0 0.0
2017-Nov-10 02:58N 47°34' W 052°42'0 0.0
2017-Nov-10 02:29N 47°34' W 052°42'0 0.0
2017-Nov-10 01:53N 47°34' W 052°42'0 0.0
2017-Nov-10 01:29N 47°34' W 052°42'0 0.0
2017-Nov-10 00:58N 47°34' W 052°42'0 0.0
2017-Nov-10 00:29N 47°34' W 052°42'0 0.0
2017-Nov-09 23:46N 47°34' W 052°42'0 0.0
2017-Nov-09 23:29N 47°34' W 052°42'0 0.0
2017-Nov-09 22:56N 47°34' W 052°42'0 0.0
2017-Nov-09 22:26N 47°34' W 052°42'0 0.0
2017-Nov-09 21:50N 47°34' W 052°42'0 0.0
2017-Nov-09 21:26N 47°34' W 052°42'0 0.0
2017-Nov-09 20:38N 47°34' W 052°42'0 0.0
2017-Nov-09 20:26N 47°34' W 052°42'0 0.0
2017-Nov-09 19:56N 47°34' W 052°42'0 0.0
2017-Nov-09 17:32N 47°34' W 052°42'0 0.0
2017-Nov-09 16:38N 47°34' W 052°42'0 0.0
2017-Nov-09 14:34N 47°34' W 052°42'0 0.0
2017-Nov-09 14:22N 47°34' W 052°42'0 0.0
2017-Nov-09 13:40N 47°34' W 052°42'0 0.0
2017-Nov-09 13:28N 47°34' W 052°42'0 0.0
2017-Nov-09 12:59N 47°34' W 052°42'0 0.0
2017-Nov-09 12:28N 47°34' W 052°42'0 0.0
2017-Nov-09 11:58N 47°34' W 052°42'0 0.0
2017-Nov-09 05:28N 47°34' W 052°42'0 0.0
2017-Nov-09 04:10N 47°34' W 052°42'0 0.0
2017-Nov-09 03:43N 47°34' W 052°42'0 0.0
2017-Nov-09 02:16N 47°34' W 052°42'0 0.0
2017-Nov-09 01:49N 47°34' W 052°42'0 0.0
2017-Nov-09 01:25N 47°34' W 052°42'0 0.0
2017-Nov-09 00:55N 47°34' W 052°42'0 0.0
2017-Nov-09 00:19N 47°34' W 052°42'0 0.0
2017-Nov-08 23:55N 47°34' W 052°42'0 0.0
2017-Nov-08 23:22N 47°34' W 052°42'0 0.0
2017-Nov-08 22:46N 47°34' W 052°42'0 0.0
2017-Nov-08 22:28N 47°34' W 052°42'0 0.0
2017-Nov-08 21:58N 47°34' W 052°42'0 0.0
2017-Nov-08 21:19N 47°34' W 052°42'0 0.0
2017-Nov-08 20:58N 47°34' W 052°42'0 0.0
2017-Nov-08 10:58N 47°34' W 052°42'0 0.0
2017-Nov-08 10:25N 47°34' W 052°42'0 0.0
2017-Nov-08 09:55N 47°34' W 052°42'0 0.0
2017-Nov-08 09:28N 47°34' W 052°42'  
Track history (hours):
 
Tides and Currents Weather Stations Pressure Air Temp Water Temp Dewpoint Dewpoint Depression Visibility Wind Speed Wind Dir Waves Ship Positions

Arcadia

Last reported at 2017-Nov-18 09:20 UTC. Time now 2017-Nov-21 15:46 UTC.
Position N 38°22' W 024°39'.

Length 36 m; draft 3 m.

Type: Pleasure craft. MMSI: 319030600.

Date/timePositionNaut miles runAvg speedWind from/ knotsBaromVisibWave heightAir tempDewpointWater temp
2017-Nov-18 09:20N 38°22' W 024°39'310.1
2017-Nov-18 09:00N 38°22' W 024°44'510.1
2017-Nov-18 08:30N 38°23' W 024°50'510.2
2017-Nov-18 08:00N 38°23' W 024°56'510.0
2017-Nov-18 07:30N 38°23' W 025°03'510.0
2017-Nov-18 07:00N 38°24' W 025°09'510.1
2017-Nov-18 06:30N 38°24' W 025°15'510.4
2017-Nov-18 06:00N 38°24' W 025°22'510.3
2017-Nov-18 05:30N 38°24' W 025°29'510.3
2017-Nov-18 05:00N 38°24' W 025°35'510.1
2017-Nov-18 04:30N 38°24' W 025°42'510.5
2017-Nov-18 04:00N 38°25' W 025°48'510.5
2017-Nov-18 03:31N 38°25' W 025°55'510.3
2017-Nov-18 03:00N 38°25' W 026°02'510.3
2017-Nov-18 02:30N 38°25' W 026°08'510.3
2017-Nov-18 02:01N 38°26' W 026°15'510.5
2017-Nov-18 01:31N 38°26' W 026°21'510.7
2017-Nov-18 01:00N 38°27' W 026°28'510.5
2017-Nov-18 00:30N 38°27' W 026°35'510.3
2017-Nov-18 00:00N 38°27' W 026°41'510.7
2017-Nov-17 23:30N 38°27' W 026°48'510.4
2017-Nov-17 23:00N 38°27' W 026°55'510.3
2017-Nov-17 22:30N 38°26' W 027°01'510.2
2017-Nov-17 22:00N 38°27' W 027°08'510.2
2017-Nov-17 21:30N 38°27' W 027°14'510.1
2017-Nov-17 21:00N 38°27' W 027°21'510.4
2017-Nov-17 20:31N 38°27' W 027°27'510.5
2017-Nov-17 20:00N 38°28' W 027°34'510.5
2017-Nov-17 19:30N 38°28' W 027°41'510.3
2017-Nov-17 19:01N 38°28' W 027°47'510.4
2017-Nov-17 18:31N 38°30' W 027°54'611.0
2017-Nov-17 18:00N 38°31' W 028°01'5 9.7
2017-Nov-17 17:30N 38°32' W 028°07'510.8
2017-Nov-17 17:00N 38°34' W 028°13'510.9
2017-Nov-17 16:30N 38°36' W 028°20'510.9
2017-Nov-17 16:00N 38°37' W 028°26'510.8
2017-Nov-17 15:30N 38°39' W 028°33'510.6
2017-Nov-17 15:00N 38°41' W 028°39'510.6
2017-Nov-17 14:30N 38°45' W 028°44'510.5
2017-Nov-17 14:00N 38°48' W 028°50'510.1
2017-Nov-17 13:30N 38°51' W 028°55'510.5
2017-Nov-17 13:00N 38°54' W 029°00'510.6
2017-Nov-17 12:30N 38°57' W 029°06'510.6
2017-Nov-17 12:00N 39°00' W 029°11'510.3
2017-Nov-17 11:31N 39°03' W 029°17'510.3
2017-Nov-17 11:00N 39°06' W 029°23'510.2
2017-Nov-17 10:30N 39°08' W 029°28'510.2
2017-Nov-17 10:00N 39°11' W 029°34'510.1
2017-Nov-17 09:30N 39°13' W 029°40'5 9.9
2017-Nov-17 09:00N 39°16' W 029°45'5 9.9
2017-Nov-17 08:30N 39°19' W 029°50'510.4
2017-Nov-17 08:00N 39°22' W 029°56'510.3
2017-Nov-17 07:30N 39°25' W 030°01'  
2017-Nov-12 04:56N 47°34' W 052°42'0 0.0
2017-Nov-12 03:47N 47°34' W 052°42'0 0.0
2017-Nov-12 03:23N 47°34' W 052°42'0 0.0
2017-Nov-12 02:53N 47°34' W 052°42'0 0.0
2017-Nov-11 20:35N 47°34' W 052°42'0 0.0
2017-Nov-11 18:41N 47°34' W 052°42'0 0.0
2017-Nov-11 09:38N 47°34' W 052°42'0 0.0
2017-Nov-11 09:26N 47°34' W 052°42'0 0.0
2017-Nov-11 08:59N 47°34' W 052°42'0 0.0
2017-Nov-11 08:29N 47°34' W 052°42'0 0.0
2017-Nov-11 07:56N 47°34' W 052°42'0 0.0
2017-Nov-11 07:29N 47°34' W 052°42'0 0.0
2017-Nov-11 06:56N 47°34' W 052°42'0 0.0
2017-Nov-11 06:29N 47°34' W 052°42'0 0.0
2017-Nov-11 05:59N 47°34' W 052°42'0 0.0
2017-Nov-11 05:29N 47°34' W 052°42'0 0.0
2017-Nov-11 04:59N 47°34' W 052°42'0 0.0
2017-Nov-11 04:29N 47°34' W 052°42'0 0.0
2017-Nov-11 03:59N 47°34' W 052°42'0 0.0
2017-Nov-11 03:29N 47°34' W 052°42'0 0.0
2017-Nov-11 02:59N 47°34' W 052°42'0 0.0
2017-Nov-11 02:29N 47°34' W 052°42'0 0.0
2017-Nov-11 01:53N 47°34' W 052°42'0 0.0
2017-Nov-11 01:29N 47°34' W 052°42'0 0.0
2017-Nov-11 00:59N 47°34' W 052°42'0 0.0
2017-Nov-10 21:17N 47°34' W 052°42'0 0.0
2017-Nov-10 18:29N 47°34' W 052°42'0 0.0
2017-Nov-10 17:56N 47°34' W 052°42'0 0.0
2017-Nov-10 15:11N 47°34' W 052°42'0 0.0
2017-Nov-10 14:53N 47°34' W 052°42'0 0.0
2017-Nov-10 12:41N 47°34' W 052°42'0 0.0
2017-Nov-10 12:11N 47°34' W 052°42'0 0.0
2017-Nov-10 04:35N 47°34' W 052°42'0 0.0
2017-Nov-10 04:29N 47°34' W 052°42'0 0.0
2017-Nov-10 03:50N 47°34' W 052°42'0 0.0
2017-Nov-10 03:26N 47°34' W 052°42'0 0.0
2017-Nov-10 02:58N 47°34' W 052°42'0 0.0
2017-Nov-10 02:29N 47°34' W 052°42'0 0.0
2017-Nov-10 01:53N 47°34' W 052°42'0 0.0
2017-Nov-10 01:29N 47°34' W 052°42'0 0.0
2017-Nov-10 00:58N 47°34' W 052°42'0 0.0
2017-Nov-10 00:29N 47°34' W 052°42'0 0.0
2017-Nov-09 23:46N 47°34' W 052°42'0 0.0
2017-Nov-09 23:29N 47°34' W 052°42'0 0.0
2017-Nov-09 22:56N 47°34' W 052°42'0 0.0
2017-Nov-09 22:26N 47°34' W 052°42'0 0.0
2017-Nov-09 21:50N 47°34' W 052°42'0 0.0
2017-Nov-09 21:26N 47°34' W 052°42'0 0.0
2017-Nov-09 20:38N 47°34' W 052°42'0 0.0
2017-Nov-09 20:26N 47°34' W 052°42'0 0.0
2017-Nov-09 19:56N 47°34' W 052°42'0 0.0
2017-Nov-09 17:32N 47°34' W 052°42'0 0.0
2017-Nov-09 16:38N 47°34' W 052°42'0 0.0
2017-Nov-09 14:34N 47°34' W 052°42'0 0.0
2017-Nov-09 14:22N 47°34' W 052°42'0 0.0
2017-Nov-09 13:40N 47°34' W 052°42'0 0.0
2017-Nov-09 13:28N 47°34' W 052°42'0 0.0
2017-Nov-09 12:59N 47°34' W 052°42'0 0.0
2017-Nov-09 12:28N 47°34' W 052°42'0 0.0
2017-Nov-09 11:58N 47°34' W 052°42'0 0.0
2017-Nov-09 05:28N 47°34' W 052°42'0 0.0
2017-Nov-09 04:10N 47°34' W 052°42'0 0.0
2017-Nov-09 03:43N 47°34' W 052°42'0 0.0
2017-Nov-09 02:16N 47°34' W 052°42'0 0.0
2017-Nov-09 01:49N 47°34' W 052°42'0 0.0
2017-Nov-09 01:25N 47°34' W 052°42'0 0.0
2017-Nov-09 00:55N 47°34' W 052°42'0 0.0
2017-Nov-09 00:19N 47°34' W 052°42'0 0.0
2017-Nov-08 23:55N 47°34' W 052°42'0 0.0
2017-Nov-08 23:22N 47°34' W 052°42'0 0.0
2017-Nov-08 22:46N 47°34' W 052°42'0 0.0
2017-Nov-08 22:28N 47°34' W 052°42'0 0.0
2017-Nov-08 21:58N 47°34' W 052°42'0 0.0
2017-Nov-08 21:19N 47°34' W 052°42'0 0.0
2017-Nov-08 20:58N 47°34' W 052°42'0 0.0
2017-Nov-08 10:58N 47°34' W 052°42'0 0.0
2017-Nov-08 10:25N 47°34' W 052°42'0 0.0
2017-Nov-08 09:55N 47°34' W 052°42'0 0.0
2017-Nov-08 09:28N 47°34' W 052°42'  

Dump ship's entire track history